Time;durP1;ratioP1;P1;durP2;ratioP2;P2;SDS_P1;SDS_P2;PMS_P1;PMS_P2;Temp;Humidity;BMP_temperature;BMP_pressure;BME280_temperature;BME280_humidity;BME280_pressure;Samples;Min_cycle;Max_cycle;Signal;HPM_P1;HPM_P2
2022/10/15 00:00:52;;;;;;;51.53;25.37;;;8.40;99.90;;;;;;4384215;28;659695;-66
2022/10/15 00:03:40;;;;;;;52.93;25.27;;;8.40;99.90;;;;;;4379822;28;658475;-66
2022/10/15 00:06:27;;;;;;;48.42;23.85;;;8.50;99.90;;;;;;4361520;28;659343;-66
2022/10/15 00:09:16;;;;;;;51.00;24.00;;;8.50;99.90;;;;;;4380205;28;659287;-66
2022/10/15 00:12:03;;;;;;;42.17;23.30;;;8.60;99.90;;;;;;4357577;28;659461;-66
2022/10/15 00:14:50;;;;;;;53.10;25.58;;;8.60;99.90;;;;;;4361535;28;659111;-67
2022/10/15 00:17:37;;;;;;;47.53;25.53;;;8.60;99.90;;;;;;4384117;28;659932;-66
2022/10/15 00:20:25;;;;;;;52.80;26.63;;;8.60;99.90;;;;;;4375580;28;658817;-67
2022/10/15 00:23:12;;;;;;;51.03;25.30;;;8.70;99.90;;;;;;4376829;28;659953;-66
2022/10/15 00:26:05;;;;;;;48.07;25.57;;;8.70;99.90;;;;;;4363025;28;658632;-66
2022/10/15 00:28:53;;;;;;;51.80;26.00;;;8.70;99.90;;;;;;4339736;28;659710;-66
2022/10/15 00:31:40;;;;;;;45.13;23.53;;;8.80;99.90;;;;;;4344238;28;659582;-66
2022/10/15 00:34:28;;;;;;;51.50;24.53;;;8.90;99.90;;;;;;4362840;28;659391;-66
2022/10/15 00:37:16;;;;;;;54.20;25.77;;;8.90;99.90;;;;;;4353966;28;659075;-68
2022/10/15 00:40:03;;;;;;;53.67;24.40;;;8.90;99.90;;;;;;4366727;28;659932;-66
2022/10/15 00:42:52;;;;;;;46.10;25.37;;;8.90;99.90;;;;;;4344130;28;658726;-66
2022/10/15 00:45:39;;;;;;;51.10;26.63;;;8.90;99.90;;;;;;4362130;28;659748;-66
2022/10/15 00:48:26;;;;;;;53.13;25.57;;;9.00;99.90;;;;;;4343706;28;658614;-66
2022/10/15 00:51:13;;;;;;;45.83;25.10;;;9.00;99.90;;;;;;4362322;28;659362;-66
2022/10/15 00:54:00;;;;;;;43.13;25.17;;;9.00;99.90;;;;;;4342864;28;658654;-66
2022/10/15 00:56:48;;;;;;;43.73;23.90;;;9.00;99.90;;;;;;4362236;28;659794;-66
2022/10/15 00:59:38;;;;;;;56.03;26.00;;;9.00;99.90;;;;;;4356447;28;658908;-67
2022/10/15 01:02:25;;;;;;;51.60;25.87;;;9.00;99.90;;;;;;4343441;28;658860;-66
2022/10/15 01:05:13;;;;;;;47.23;24.97;;;9.00;99.90;;;;;;4361888;28;659912;-66
2022/10/15 01:08:00;;;;;;;50.97;25.83;;;8.90;99.90;;;;;;4343396;28;658356;-67
2022/10/15 01:10:50;;;;;;;45.27;24.00;;;8.90;99.90;;;;;;4361967;28;660027;-66
2022/10/15 01:13:38;;;;;;;49.87;24.60;;;8.90;99.90;;;;;;4339461;28;659411;-66
2022/10/15 01:16:31;;;;;;;46.60;24.50;;;8.90;99.90;;;;;;4343383;28;659299;-66
2022/10/15 01:19:31;;;;;;;53.67;23.73;;;8.80;99.90;;;;;;4339190;28;659129;-66
2022/10/15 01:22:22;;;;;;;42.17;21.83;;;8.70;99.90;;;;;;4339083;28;659374;-66
2022/10/15 01:25:15;;;;;;;48.23;21.40;;;8.70;99.90;;;;;;4339279;28;658330;-66
2022/10/15 01:28:04;;;;;;;41.77;23.43;;;8.70;99.90;;;;;;4316744;28;659381;-66
2022/10/15 01:30:55;;;;;;;47.03;23.43;;;8.70;99.90;;;;;;4343055;28;659291;-66
2022/10/15 01:33:42;;;;;;;53.00;25.40;;;8.60;99.90;;;;;;4338755;28;659552;-66
2022/10/15 01:36:32;;;;;;;45.90;23.93;;;8.50;99.90;;;;;;4360799;28;658822;-66
2022/10/15 01:39:21;;;;;;;53.90;26.17;;;8.50;99.90;;;;;;4339188;28;658456;-66
2022/10/15 01:42:13;;;;;;;43.83;23.10;;;8.50;99.90;;;;;;4339110;28;658655;-66
2022/10/15 01:45:02;;;;;;;44.87;23.83;;;8.50;99.90;;;;;;4326597;28;658795;-67
2022/10/15 01:47:52;;;;;;;55.75;23.30;;;8.50;99.90;;;;;;4361425;28;659412;-66
2022/10/15 01:50:42;;;;;;;45.08;22.98;;;8.40;99.90;;;;;;4338770;28;658645;-66
2022/10/15 01:53:29;;;;;;;46.47;23.37;;;8.40;99.90;;;;;;4338918;28;659047;-66
2022/10/15 01:56:19;;;;;;;50.90;23.43;;;8.30;99.90;;;;;;4342752;28;658510;-66
2022/10/15 01:59:06;;;;;;;41.60;23.20;;;8.30;99.90;;;;;;4342673;28;658548;-66
2022/10/15 02:01:53;;;;;;;48.57;24.83;;;8.30;99.90;;;;;;4361316;28;659191;-66
2022/10/15 02:04:42;;;;;;;51.87;24.73;;;8.20;99.90;;;;;;4342708;28;658682;-68
2022/10/15 02:07:33;;;;;;;74.07;22.43;;;8.20;99.90;;;;;;4361023;28;658165;-66
2022/10/15 02:10:23;;;;;;;40.17;21.90;;;8.30;99.90;;;;;;4331360;28;658921;-68
2022/10/15 02:13:13;;;;;;;44.67;23.63;;;8.20;99.90;;;;;;4342595;28;658696;-66
2022/10/15 02:16:03;;;;;;;46.63;22.93;;;8.20;99.90;;;;;;4341631;28;658739;-66
2022/10/15 02:18:52;;;;;;;43.87;23.67;;;8.00;99.90;;;;;;4347081;28;658912;-67
2022/10/15 02:21:42;;;;;;;52.93;22.70;;;8.10;99.90;;;;;;4360772;28;658759;-66
2022/10/15 02:24:34;;;;;;;51.03;25.97;;;8.00;99.90;;;;;;4370297;28;658733;-68
2022/10/15 02:27:21;;;;;;;45.25;22.30;;;8.00;99.90;;;;;;4355261;28;658701;-66
2022/10/15 02:30:09;;;;;;;41.75;22.08;;;8.00;99.90;;;;;;4377863;28;659559;-66
2022/10/15 02:32:57;;;;;;;47.33;24.17;;;8.00;99.90;;;;;;4359359;28;658664;-66
2022/10/15 02:35:44;;;;;;;43.73;23.43;;;7.90;99.90;;;;;;4381136;28;659284;-66
2022/10/15 02:38:33;;;;;;;43.47;23.87;;;7.90;99.90;;;;;;4359071;28;659258;-66
2022/10/15 02:41:20;;;;;;;41.77;22.80;;;7.90;99.90;;;;;;4371966;28;659079;-67
2022/10/15 02:44:07;;;;;;;46.20;23.53;;;7.90;99.90;;;;;;4382063;28;659690;-66
2022/10/15 02:46:54;;;;;;;57.37;24.73;;;7.90;99.90;;;;;;4377431;28;658458;-66
2022/10/15 02:49:41;;;;;;;55.13;25.70;;;7.90;99.90;;;;;;4359207;28;658699;-66
2022/10/15 02:52:29;;;;;;;43.90;24.07;;;7.90;99.90;;;;;;4377481;28;658614;-66
2022/10/15 02:55:17;;;;;;;45.20;22.90;;;7.80;99.90;;;;;;4359400;28;659187;-66
2022/10/15 02:58:04;;;;;;;47.73;24.20;;;7.90;99.90;;;;;;4381180;28;658829;-66
2022/10/15 03:00:52;;;;;;;47.40;24.60;;;7.90;99.90;;;;;;4362406;28;659687;-66
2022/10/15 03:03:39;;;;;;;48.57;24.20;;;7.90;99.90;;;;;;4380847;28;658625;-66
2022/10/15 03:06:26;;;;;;;59.70;22.47;;;7.90;99.90;;;;;;4361364;28;658547;-66
2022/10/15 03:09:13;;;;;;;50.23;24.27;;;7.90;99.90;;;;;;4380780;28;659388;-66
2022/10/15 03:12:02;;;;;;;53.60;22.60;;;7.90;99.90;;;;;;4362296;28;658938;-67
2022/10/15 03:14:49;;;;;;;45.87;23.23;;;7.90;99.90;;;;;;4380882;28;658572;-66
2022/10/15 03:17:36;;;;;;;49.80;24.00;;;7.90;99.90;;;;;;4362220;28;658508;-66
2022/10/15 03:20:23;;;;;;;52.50;24.60;;;7.90;99.90;;;;;;4381136;28;659880;-66
2022/10/15 03:23:10;;;;;;;48.67;25.63;;;8.00;99.90;;;;;;4358366;28;658526;-66
2022/10/15 03:25:57;;;;;;;42.17;22.63;;;7.90;99.90;;;;;;4363984;28;659512;-66
2022/10/15 03:28:46;;;;;;;46.50;22.30;;;7.90;99.90;;;;;;4361008;28;658746;-67
2022/10/15 03:31:34;;;;;;;43.23;22.40;;;7.90;99.90;;;;;;4363541;28;658859;-66
2022/10/15 03:34:21;;;;;;;47.03;24.37;;;7.90;99.90;;;;;;4344821;28;658560;-66
2022/10/15 03:37:08;;;;;;;50.63;25.03;;;7.90;99.90;;;;;;4365779;28;659445;-66
2022/10/15 03:39:55;;;;;;;49.00;25.97;;;7.80;99.90;;;;;;4344859;28;658560;-67
2022/10/15 03:42:42;;;;;;;51.43;25.17;;;7.90;99.90;;;;;;4367794;28;659847;-66
2022/10/15 03:45:31;;;;;;;51.40;25.47;;;7.90;99.90;;;;;;4363492;28;658561;-66
2022/10/15 03:48:18;;;;;;;47.10;25.13;;;7.90;99.90;;;;;;4340751;28;660294;-66
2022/10/15 03:51:06;;;;;;;44.53;23.73;;;7.90;99.90;;;;;;4344588;28;658558;-67
2022/10/15 03:53:53;;;;;;;47.93;24.23;;;7.70;99.90;;;;;;4363114;28;659126;-66
2022/10/15 03:56:40;;;;;;;48.22;24.05;;;7.80;99.90;;;;;;4349940;28;659186;-66
2022/10/15 03:59:27;;;;;;;47.27;24.60;;;7.90;99.90;;;;;;4363494;28;660478;-66
2022/10/15 04:02:17;;;;;;;43.87;23.67;;;7.90;99.90;;;;;;4362186;28;658603;-67
2022/10/15 04:05:04;;;;;;;48.80;23.30;;;7.90;99.90;;;;;;4362977;28;658862;-66
2022/10/15 04:07:51;;;;;;;47.53;22.03;;;8.00;99.90;;;;;;4344407;28;658951;-66
2022/10/15 04:10:39;;;;;;;45.30;22.53;;;8.00;99.90;;;;;;4362941;28;658708;-66
2022/10/15 04:13:26;;;;;;;45.00;21.60;;;8.00;99.90;;;;;;4344419;28;658470;-66
2022/10/15 04:16:13;;;;;;;40.37;21.73;;;8.00;99.90;;;;;;4366272;28;659665;-66
2022/10/15 04:19:02;;;;;;;44.83;21.53;;;8.00;99.90;;;;;;4344217;28;658644;-68
2022/10/15 04:21:49;;;;;;;48.47;22.93;;;8.00;99.90;;;;;;4362766;28;659069;-66
2022/10/15 04:24:36;;;;;;;40.03;22.10;;;8.00;99.90;;;;;;4356679;28;658694;-66
2022/10/15 04:27:23;;;;;;;42.17;21.47;;;8.00;99.90;;;;;;4382226;28;659095;-66
2022/10/15 04:30:12;;;;;;;50.83;23.17;;;8.10;99.90;;;;;;4360679;28;658716;-67
2022/10/15 04:32:59;;;;;;;52.27;24.80;;;8.20;99.90;;;;;;4378147;28;658171;-66
2022/10/15 04:35:47;;;;;;;82.87;31.43;;;8.20;99.90;;;;;;4360582;28;658678;-66
2022/10/15 04:38:35;;;;;;;93.40;34.17;;;8.20;99.90;;;;;;4378233;28;658865;-67
2022/10/15 04:41:22;;;;;;;56.80;25.52;;;8.30;99.90;;;;;;4383718;28;659617;-66
2022/10/15 04:44:10;;;;;;;55.63;25.20;;;8.40;99.90;;;;;;4379663;28;659109;-66
2022/10/15 04:46:57;;;;;;;54.60;24.43;;;8.50;99.90;;;;;;4356683;28;659909;-66
2022/10/15 04:49:44;;;;;;;50.47;23.93;;;8.60;99.90;;;;;;4379444;28;659734;-66
2022/10/15 04:52:33;;;;;;;73.38;30.08;;;8.70;99.90;;;;;;4360464;28;658380;-66
2022/10/15 04:55:20;;;;;;;307.83;133.50;;;8.80;99.90;;;;;;4360354;28;659241;-67
2022/10/15 04:58:07;;;;;;;408.93;143.27;;;8.90;99.90;;;;;;4377085;28;662217;-66
2022/10/15 05:00:55;;;;;;;658.60;201.37;;;8.80;99.90;;;;;;4372483;28;660631;-68
2022/10/15 05:03:43;;;;;;;655.77;194.83;;;8.80;99.90;;;;;;4381099;28;661606;-66
2022/10/15 05:06:32;;;;;;;163.83;60.70;;;8.80;99.90;;;;;;4357972;28;661030;-66
2022/10/15 05:09:20;;;;;;;143.00;48.40;;;8.90;99.90;;;;;;4376430;28;659957;-66
2022/10/15 05:12:08;;;;;;;372.07;87.83;;;8.80;99.90;;;;;;4355303;28;661013;-66
2022/10/15 05:14:55;;;;;;;344.73;94.90;;;8.90;99.90;;;;;;4369504;28;660060;-67
2022/10/15 05:17:42;;;;;;;299.67;91.70;;;8.80;99.90;;;;;;4381357;28;661443;-66
2022/10/15 05:20:29;;;;;;;115.33;41.77;;;8.90;99.90;;;;;;4377644;28;659683;-66
2022/10/15 05:23:17;;;;;;;98.77;36.30;;;8.80;99.90;;;;;;4354590;28;660352;-66
2022/10/15 05:26:06;;;;;;;232.27;80.33;;;8.90;99.90;;;;;;4361610;28;659159;-66
2022/10/15 05:28:53;;;;;;;283.73;98.40;;;8.90;99.90;;;;;;4338016;28;660557;-66
2022/10/15 05:31:40;;;;;;;232.63;74.97;;;8.90;99.90;;;;;;4341888;28;659683;-67
2022/10/15 05:34:29;;;;;;;506.27;158.90;;;8.90;99.90;;;;;;4360378;28;660537;-66
2022/10/15 05:37:16;;;;;;;253.30;82.07;;;9.00;99.90;;;;;;4340354;28;661446;-66
2022/10/15 05:40:04;;;;;;;208.33;69.23;;;9.10;99.90;;;;;;4360309;28;660183;-66
2022/10/15 05:42:53;;;;;;;410.80;130.15;;;9.10;99.90;;;;;;4337194;28;659521;-66
2022/10/15 05:45:40;;;;;;;291.73;107.10;;;9.10;99.90;;;;;;4343998;28;661199;-68
2022/10/15 05:48:27;;;;;;;215.27;81.30;;;9.20;99.90;;;;;;4363008;28;662036;-66
2022/10/15 05:51:14;;;;;;;133.30;50.37;;;9.20;99.90;;;;;;4360187;28;659584;-66
2022/10/15 05:54:02;;;;;;;103.97;40.03;;;9.30;99.90;;;;;;4341632;28;661683;-66
2022/10/15 05:56:49;;;;;;;54.07;26.47;;;9.40;99.90;;;;;;4359998;28;660164;-66
2022/10/15 05:59:37;;;;;;;55.30;22.35;;;9.50;99.90;;;;;;4338637;28;659601;-66
2022/10/15 06:02:24;;;;;;;47.57;24.50;;;9.60;99.90;;;;;;4361227;28;658379;-66
2022/10/15 06:05:12;;;;;;;45.47;24.23;;;9.70;99.90;;;;;;4338800;28;660535;-66
2022/10/15 06:07:59;;;;;;;53.03;26.10;;;9.90;99.90;;;;;;4360931;28;658865;-66
2022/10/15 06:10:46;;;;;;;61.40;27.00;;;10.10;99.90;;;;;;4341627;28;658557;-66
2022/10/15 06:13:33;;;;;;;62.70;30.67;;;10.20;99.90;;;;;;4359959;28;662042;-66
2022/10/15 06:16:22;;;;;;;50.27;27.63;;;10.30;99.90;;;;;;4341270;28;660273;-67
2022/10/15 06:19:09;;;;;;;46.97;23.90;;;10.30;99.90;;;;;;4359849;28;659851;-66
2022/10/15 06:21:56;;;;;;;42.47;23.40;;;10.40;99.90;;;;;;4341325;28;659468;-66
2022/10/15 06:24:43;;;;;;;42.27;23.43;;;10.50;99.90;;;;;;4374330;28;660544;-66
2022/10/15 06:27:32;;;;;;;48.80;23.87;;;10.50;99.90;;;;;;4358011;28;660286;-66
2022/10/15 06:30:19;;;;;;;37.00;20.37;;;10.60;99.90;;;;;;4376970;28;659977;-66
2022/10/15 06:33:08;;;;;;;43.67;23.33;;;10.60;99.90;;;;;;4358228;28;661042;-66
2022/10/15 06:35:55;;;;;;;38.77;22.00;;;10.70;99.90;;;;;;4357556;28;659720;-67
2022/10/15 06:38:43;;;;;;;39.23;22.00;;;10.70;99.90;;;;;;4380761;28;661666;-66
2022/10/15 06:41:30;;;;;;;65.13;29.37;;;10.80;99.90;;;;;;4357892;28;659712;-67
2022/10/15 06:44:17;;;;;;;56.00;27.73;;;10.90;99.90;;;;;;4376818;28;661921;-66
2022/10/15 06:47:05;;;;;;;46.37;25.83;;;11.00;99.90;;;;;;4375090;28;659782;-67
2022/10/15 06:49:54;;;;;;;49.03;27.27;;;11.10;99.90;;;;;;4381012;28;661101;-66
2022/10/15 06:52:41;;;;;;;47.43;25.17;;;11.30;99.90;;;;;;4356298;28;659519;-66
2022/10/15 06:55:28;;;;;;;44.57;24.53;;;11.40;99.90;;;;;;4379901;28;660433;-66
2022/10/15 06:58:15;;;;;;;39.57;22.30;;;11.60;99.90;;;;;;4357546;28;659975;-66
2022/10/15 07:01:03;;;;;;;40.37;21.47;;;11.80;99.90;;;;;;4376453;28;661480;-66
2022/10/15 07:03:50;;;;;;;42.45;21.25;;;11.90;99.90;;;;;;4357723;28;659366;-68
2022/10/15 07:06:40;;;;;;;37.70;21.30;;;12.00;99.90;;;;;;4376748;28;661453;-66
2022/10/15 07:09:27;;;;;;;36.60;21.25;;;12.10;99.90;;;;;;4358049;28;660714;-66
2022/10/15 07:12:15;;;;;;;35.20;20.23;;;12.20;99.90;;;;;;4376650;28;660866;-66
2022/10/15 07:15:02;;;;;;;36.00;20.63;;;12.30;99.90;;;;;;4357931;28;660105;-66
2022/10/15 07:17:49;;;;;;;38.53;20.90;;;12.30;99.90;;;;;;4376209;28;659876;-66
2022/10/15 07:20:37;;;;;;;38.00;21.57;;;12.40;99.90;;;;;;4357977;28;661073;-66
2022/10/15 07:23:25;;;;;;;38.17;21.53;;;12.50;99.90;;;;;;4371131;28;659837;-66
2022/10/15 07:26:12;;;;;;;37.10;20.97;;;12.60;99.90;;;;;;4340401;28;660380;-66
2022/10/15 07:29:00;;;;;;;36.73;20.60;;;12.80;99.90;;;;;;4359462;28;659906;-66
2022/10/15 07:31:47;;;;;;;43.43;20.80;;;13.00;99.90;;;;;;4336906;28;660735;-66
2022/10/15 07:34:34;;;;;;;33.40;20.20;;;13.10;99.90;;;;;;4359430;28;660523;-66
2022/10/15 07:37:21;;;;;;;34.28;20.27;;;13.20;99.90;;;;;;4340609;28;660322;-66
2022/10/15 07:40:11;;;;;;;37.67;20.73;;;13.40;99.90;;;;;;4359260;28;660023;-66
2022/10/15 07:42:59;;;;;;;35.70;20.07;;;13.60;99.90;;;;;;4339565;28;660263;-66
2022/10/15 07:45:48;;;;;;;32.45;19.85;;;13.50;99.90;;;;;;4340034;28;659518;-67
2022/10/15 07:48:35;;;;;;;33.33;19.25;;;13.60;99.90;;;;;;4348632;28;660246;-68
2022/10/15 07:51:22;;;;;;;32.23;18.57;;;13.70;99.90;;;;;;4362362;28;661668;-66
2022/10/15 07:54:10;;;;;;;38.80;18.90;;;13.90;99.90;;;;;;4358886;28;660030;-67
2022/10/15 07:56:59;;;;;;;30.60;17.80;;;14.20;99.90;;;;;;4362232;28;661360;-67
2022/10/15 07:59:46;;;;;;;28.83;18.10;;;14.30;99.90;;;;;;4342200;28;659664;-67
2022/10/15 08:02:33;;;;;;;29.63;17.40;;;14.30;99.90;;;;;;4361964;28;661110;-66
2022/10/15 08:05:20;;;;;;;29.87;17.63;;;14.70;99.90;;;;;;4343287;28;659767;-67
2022/10/15 08:08:07;;;;;;;27.20;16.77;;;15.40;99.90;;;;;;4366041;28;660744;-66
2022/10/15 08:10:54;;;;;;;30.50;18.13;;;15.70;99.90;;;;;;4361844;28;659391;-66
2022/10/15 08:13:43;;;;;;;29.13;17.10;;;15.90;99.90;;;;;;4343371;28;661016;-66
2022/10/15 08:16:30;;;;;;;29.17;17.87;;;16.30;99.90;;;;;;4343172;28;659812;-67
2022/10/15 08:19:17;;;;;;;30.10;16.73;;;16.70;99.90;;;;;;4366177;28;660656;-67
2022/10/15 08:22:04;;;;;;;28.37;15.93;;;17.20;99.90;;;;;;4362013;28;659564;-66
2022/10/15 08:24:52;;;;;;;24.17;15.53;;;17.10;99.90;;;;;;4358948;28;661101;-67
2022/10/15 08:27:39;;;;;;;31.03;16.23;;;17.10;99.90;;;;;;4377690;28;660054;-66
2022/10/15 08:30:27;;;;;;;25.33;15.40;;;17.20;99.90;;;;;;4359865;28;660081;-66
2022/10/15 08:33:15;;;;;;;25.60;15.83;;;17.50;99.90;;;;;;4377688;28;660614;-68
2022/10/15 08:36:04;;;;;;;25.20;15.17;;;17.80;99.90;;;;;;4382605;28;660651;-67
2022/10/15 08:38:51;;;;;;;24.17;14.13;;;18.20;99.90;;;;;;4359948;28;659530;-67
2022/10/15 08:41:39;;;;;;;22.60;15.60;;;18.80;99.90;;;;;;4381302;28;661734;-67
2022/10/15 08:44:27;;;;;;;26.43;15.33;;;18.20;99.90;;;;;;4342597;28;660332;-67
2022/10/15 08:47:23;;;;;;;25.60;15.60;;;18.60;99.90;;;;;;4378496;28;659740;-67
2022/10/15 08:50:16;;;;;;;24.03;15.73;;;19.00;99.90;;;;;;4338311;28;659802;-68
2022/10/15 08:53:04;;;;;;;26.53;16.53;;;18.90;99.90;;;;;;4354716;28;659706;-66
2022/10/15 08:55:53;;;;;;;28.57;16.17;;;19.20;99.90;;;;;;4359253;28;659678;-66
2022/10/15 08:58:45;;;;;;;39.57;18.27;;;19.20;99.90;;;;;;4364228;28;660166;-68
2022/10/15 09:01:35;;;;;;;23.20;15.03;;;19.20;99.90;;;;;;4359445;28;660302;-66
2022/10/15 09:04:26;;;;;;;23.53;14.93;;;19.20;98.90;;;;;;4355626;28;661855;-67
2022/10/15 09:07:14;;;;;;;29.83;14.77;;;18.90;99.90;;;;;;4355201;28;660322;-67
2022/10/15 09:10:06;;;;;;;25.13;15.50;;;18.60;99.90;;;;;;4359318;28;660683;-66
2022/10/15 09:12:55;;;;;;;24.30;14.90;;;18.60;99.90;;;;;;4355172;28;660377;-66
2022/10/15 09:15:48;;;;;;;23.07;15.63;;;18.70;99.90;;;;;;4355382;28;660550;-66
2022/10/15 09:18:35;;;;;;;28.03;15.63;;;18.60;99.90;;;;;;4347223;28;660200;-68
2022/10/15 09:21:24;;;;;;;25.53;15.23;;;18.50;99.90;;;;;;4378201;28;661119;-67
2022/10/15 09:24:12;;;;;;;20.37;13.90;;;18.30;99.90;;;;;;4344137;28;660269;-67
2022/10/15 09:27:03;;;;;;;20.85;13.55;;;18.40;99.90;;;;;;4360540;28;659577;-67
2022/10/15 09:29:53;;;;;;;22.77;14.27;;;18.50;99.90;;;;;;4321113;28;660021;-67
2022/10/15 09:32:42;;;;;;;22.00;14.47;;;18.40;99.90;;;;;;4342087;28;659927;-66
2022/10/15 09:35:31;;;;;;;25.07;14.87;;;18.00;99.90;;;;;;4360472;28;659571;-66
2022/10/15 09:38:25;;;;;;;20.93;13.87;;;17.90;99.90;;;;;;4337986;28;660837;-66
2022/10/15 09:41:16;;;;;;;24.50;13.93;;;17.90;99.90;;;;;;4315104;28;661506;-67
2022/10/15 09:44:09;;;;;;;19.70;13.27;;;17.90;99.90;;;;;;4338030;28;660470;-66
2022/10/15 09:46:56;;;;;;;20.90;13.47;;;18.00;99.90;;;;;;4319222;28;659969;-66
2022/10/15 09:49:44;;;;;;;31.77;14.40;;;17.90;99.90;;;;;;4360836;28;660601;-66
2022/10/15 09:52:52;;;;;;;27.23;13.27;;;17.80;99.90;;;;;;4341900;28;659936;-67
2022/10/15 09:55:45;;;;;;;19.97;12.73;;;17.60;99.90;;;;;;4337865;28;659628;-66
2022/10/15 09:58:37;;;;;;;19.83;13.00;;;17.40;99.90;;;;;;4315147;28;660460;-66
2022/10/15 10:01:24;;;;;;;25.03;13.73;;;17.10;99.90;;;;;;4337725;28;661175;-66
2022/10/15 10:04:14;;;;;;;26.83;14.37;;;17.00;99.90;;;;;;4341636;28;659782;-66
2022/10/15 10:07:03;;;;;;;20.87;13.30;;;17.20;99.90;;;;;;4341906;28;660769;-67
2022/10/15 10:09:52;;;;;;;21.93;13.50;;;17.30;99.90;;;;;;4341495;28;659725;-67
2022/10/15 10:12:40;;;;;;;23.00;13.37;;;17.30;99.90;;;;;;4358349;28;659969;-66
2022/10/15 10:15:31;;;;;;;20.50;13.67;;;17.50;99.90;;;;;;4337664;28;660902;-67
2022/10/15 10:18:19;;;;;;;29.67;13.30;;;17.80;99.90;;;;;;4337456;28;660702;-67
2022/10/15 10:21:09;;;;;;;25.63;13.23;;;18.10;99.90;;;;;;4340269;28;660045;-66
2022/10/15 10:23:56;;;;;;;23.73;11.80;;;18.10;99.90;;;;;;4350153;28;659663;-66
2022/10/15 10:26:44;;;;;;;18.90;11.23;;;18.20;99.90;;;;;;4377426;28;660252;-66
2022/10/15 10:29:34;;;;;;;17.47;11.63;;;18.00;98.90;;;;;;4358242;28;659688;-67
2022/10/15 10:32:23;;;;;;;20.47;11.40;;;18.50;99.90;;;;;;4358024;28;659401;-66
2022/10/15 10:35:19;;;;;;;20.17;11.70;;;18.30;99.30;;;;;;4361944;28;659702;-68
2022/10/15 10:38:06;;;;;;;19.63;9.83;;;18.60;99.90;;;;;;4331682;28;660110;-66
2022/10/15 10:40:54;;;;;;;16.57;10.60;;;19.10;98.00;;;;;;4378094;28;659013;-66
2022/10/15 10:43:52;;;;;;;17.70;8.83;;;19.00;98.30;;;;;;4358156;28;659738;-66
2022/10/15 10:46:40;;;;;;;12.03;7.77;;;18.90;95.10;;;;;;4355447;28;658796;-66
2022/10/15 10:49:31;;;;;;;14.43;9.77;;;18.30;93.70;;;;;;4359191;28;659571;-66
2022/10/15 10:52:23;;;;;;;11.32;7.20;;;18.20;95.40;;;;;;4355187;28;661031;-65
2022/10/15 10:55:16;;;;;;;19.30;9.17;;;17.70;92.40;;;;;;4334961;28;658773;-66
2022/10/15 10:58:03;;;;;;;14.93;8.33;;;17.30;94.30;;;;;;4355211;28;659321;-66
2022/10/15 11:00:51;;;;;;;16.13;8.73;;;17.40;93.40;;;;;;4362654;28;658694;-67
2022/10/15 11:03:40;;;;;;;15.73;8.93;;;17.60;95.60;;;;;;4377816;28;659120;-66
2022/10/15 11:06:44;;;;;;;12.13;8.60;;;17.60;93.90;;;;;;4359031;28;659900;-66
2022/10/15 11:09:52;;;;;;;15.63;7.20;;;17.70;93.40;;;;;;4359145;28;658443;-65
2022/10/15 11:12:46;;;;;;;12.93;8.27;;;17.60;93.30;;;;;;4355200;28;659127;-66
2022/10/15 11:15:44;;;;;;;12.63;8.37;;;17.60;94.00;;;;;;4355058;28;659344;-66
2022/10/15 11:18:49;;;;;;;15.30;8.63;;;17.80;96.20;;;;;;4335790;28;659996;-66
2022/10/15 11:21:42;;;;;;;13.30;7.53;;;17.70;94.10;;;;;;4339815;28;659879;-66
2022/10/15 11:24:32;;;;;;;10.57;7.43;;;17.60;92.20;;;;;;4357991;28;658611;-66
2022/10/15 11:27:27;;;;;;;11.63;7.00;;;17.20;93.00;;;;;;4358060;28;658693;-66
2022/10/15 11:30:26;;;;;;;12.30;6.60;;;17.30;92.10;;;;;;4354943;28;658484;-68
2022/10/15 11:33:21;;;;;;;12.73;7.07;;;17.30;93.40;;;;;;4358266;28;659372;-66
2022/10/15 11:36:22;;;;;;;10.90;6.17;;;17.30;92.70;;;;;;4357898;28;659352;-65
2022/10/15 11:39:30;;;;;;;9.70;5.93;;;17.50;90.80;;;;;;4357723;28;659283;-65
2022/10/15 11:42:18;;;;;;;8.57;6.00;;;17.50;90.80;;;;;;4336481;28;658707;-65
2022/10/15 11:45:31;;;;;;;12.47;6.70;;;17.50;89.60;;;;;;4363171;28;657537;-65
2022/10/15 11:48:22;;;;;;;13.03;5.47;;;17.30;90.60;;;;;;4357332;28;659811;-65
2022/10/15 11:51:14;;;;;;;11.23;6.10;;;17.00;90.30;;;;;;4357734;28;659331;-65
2022/10/15 11:54:09;;;;;;;8.40;5.80;;;17.00;91.20;;;;;;4335028;28;659037;-65
2022/10/15 11:56:58;;;;;;;16.60;6.40;;;17.00;91.10;;;;;;4336168;28;659521;-64
2022/10/15 11:59:47;;;;;;;10.87;6.83;;;17.00;89.90;;;;;;4361594;28;658672;-65
2022/10/15 12:02:35;;;;;;;12.17;6.17;;;16.90;91.30;;;;;;4380180;28;659546;-64
2022/10/15 12:05:26;;;;;;;12.33;5.93;;;16.90;91.00;;;;;;4357616;28;660637;-65
2022/10/15 12:08:15;;;;;;;13.30;6.40;;;16.80;91.80;;;;;;4357809;28;659264;-65
2022/10/15 12:11:11;;;;;;;9.27;5.93;;;16.80;91.90;;;;;;4357110;28;660909;-65
2022/10/15 12:14:00;;;;;;;10.37;6.30;;;16.90;90.90;;;;;;4359046;28;658789;-65
2022/10/15 12:16:53;;;;;;;12.77;6.90;;;16.70;93.50;;;;;;4357744;28;659796;-65
2022/10/15 12:19:43;;;;;;;10.83;6.30;;;16.90;90.90;;;;;;4337156;28;658864;-65
2022/10/15 12:22:34;;;;;;;14.60;6.70;;;16.80;92.10;;;;;;4369027;28;659094;-66
2022/10/15 12:25:45;;;;;;;10.40;6.57;;;16.80;90.20;;;;;;4361123;28;658448;-65
2022/10/15 12:28:32;;;;;;;14.43;6.40;;;16.90;89.70;;;;;;4334478;28;658830;-65
2022/10/15 12:31:20;;;;;;;12.13;6.40;;;16.90;91.20;;;;;;4379882;28;659295;-65
2022/10/15 12:34:13;;;;;;;10.37;6.13;;;16.90;92.80;;;;;;4361136;28;659783;-65
2022/10/15 12:37:04;;;;;;;13.43;6.07;;;17.00;91.00;;;;;;4360517;28;658489;-66
2022/10/15 12:39:55;;;;;;;11.23;6.13;;;17.10;91.70;;;;;;4361138;28;658763;-65
2022/10/15 12:42:44;;;;;;;11.50;6.63;;;17.30;92.80;;;;;;4361416;28;659758;-65
2022/10/15 12:45:34;;;;;;;15.70;6.90;;;17.50;90.90;;;;;;4360789;28;658712;-66
2022/10/15 12:48:29;;;;;;;11.97;6.47;;;17.50;91.30;;;;;;4360827;28;658869;-66
2022/10/15 12:51:38;;;;;;;12.73;6.80;;;17.60;92.00;;;;;;4360339;28;659065;-65
2022/10/15 12:54:36;;;;;;;19.47;7.03;;;17.70;92.70;;;;;;4342979;28;658800;-67
2022/10/15 12:57:56;;;;;;;10.53;6.90;;;17.50;93.60;;;;;;4356765;28;659542;-65
2022/10/15 13:00:43;;;;;;;11.50;7.60;;;17.80;94.20;;;;;;4357222;28;659347;-65
2022/10/15 13:03:38;;;;;;;15.80;7.87;;;18.10;95.40;;;;;;4360948;28;658503;-66
2022/10/15 13:06:33;;;;;;;12.20;7.97;;;18.30;98.00;;;;;;4349662;28;658506;-67
2022/10/15 13:09:29;;;;;;;11.37;7.30;;;18.30;92.00;;;;;;4337927;28;658761;-66
2022/10/15 13:12:22;;;;;;;13.67;7.77;;;18.20;91.90;;;;;;4334051;28;659406;-66
2022/10/15 13:15:13;;;;;;;15.50;8.20;;;17.70;97.20;;;;;;4356555;28;658948;-65
2022/10/15 13:18:04;;;;;;;13.87;7.60;;;17.80;97.30;;;;;;4338403;28;659296;-67
2022/10/15 13:20:53;;;;;;;14.80;7.87;;;17.60;94.40;;;;;;4360677;28;659064;-66
2022/10/15 13:23:45;;;;;;;11.30;7.30;;;17.60;95.60;;;;;;4360095;28;658847;-67
2022/10/15 13:26:32;;;;;;;13.80;7.80;;;17.70;95.60;;;;;;4356245;28;660508;-65
2022/10/15 13:29:20;;;;;;;12.67;7.70;;;17.70;94.90;;;;;;4378849;28;658658;-65
2022/10/15 13:32:12;;;;;;;14.00;7.53;;;17.80;94.50;;;;;;4360217;28;659246;-65
2022/10/15 13:35:00;;;;;;;13.00;7.60;;;17.80;93.30;;;;;;4355986;28;658315;-65
2022/10/15 13:37:47;;;;;;;15.70;8.63;;;17.60;94.60;;;;;;4339452;28;660722;-65
2022/10/15 13:40:34;;;;;;;12.30;7.60;;;17.40;96.10;;;;;;4361315;28;658318;-66
2022/10/15 13:43:22;;;;;;;13.00;7.83;;;17.40;96.40;;;;;;4342744;28;659214;-66
2022/10/15 13:46:11;;;;;;;16.47;9.20;;;17.40;97.60;;;;;;4361636;28;658280;-65
2022/10/15 13:49:01;;;;;;;17.53;10.27;;;17.40;96.50;;;;;;4336210;28;660021;-65
2022/10/15 13:51:49;;;;;;;14.77;10.13;;;17.50;97.20;;;;;;4337651;28;660668;-65
2022/10/15 13:54:36;;;;;;;16.47;10.37;;;17.50;96.00;;;;;;4340278;28;660048;-66
2022/10/15 13:57:23;;;;;;;18.57;10.27;;;17.50;98.50;;;;;;4360508;28;660289;-65
2022/10/15 14:00:20;;;;;;;17.47;9.33;;;17.50;99.10;;;;;;4341581;28;659837;-65
2022/10/15 14:03:15;;;;;;;18.93;10.40;;;17.60;97.70;;;;;;4316234;28;659262;-65
2022/10/15 14:06:12;;;;;;;20.67;10.37;;;17.70;98.60;;;;;;4314946;28;659654;-65
2022/10/15 14:09:00;;;;;;;24.70;11.70;;;17.70;95.60;;;;;;4337698;28;660038;-66
2022/10/15 14:11:47;;;;;;;18.90;10.57;;;17.50;95.90;;;;;;4337473;28;661227;-66
2022/10/15 14:14:35;;;;;;;19.23;10.57;;;17.20;96.30;;;;;;4360418;28;659551;-66